Terminal Aerodrome Forecast
Issued by NWS Wilmington, OH

Current Version | Previous Version | Graphics & Text | Print | Product List | Glossary On
Versions: 1 2 3 4 5 6 7 8 9 10 11 12 13 14 15 16 17 18 19 20 21 22 23 24 25
000
FTUS41 KILN 270540
TAFILN
TAF
KILN 270540Z 2706/2806 32004KT P6SM VCSH SCT040 BKN100
      TEMPO 2706/2707 4SM -SHRA BKN030
     FM270900 00000KT P6SM SCT050 BKN100
      TEMPO 2709/2713 5SM BR BKN040
     FM271400 12005KT P6SM VCSH SCT025 BKN150
     FM271800 06005KT P6SM SCT030 BKN150
     FM280000 05003KT 5SM BR FEW030=

USA.gov is the U.S. government's official web portal to all federal, state and local government web resources and services.